Time;durP1;ratioP1;P1;durP2;ratioP2;P2;SDS_P1;SDS_P2;PMS_P1;PMS_P2;Temp;Humidity;BMP_temperature;BMP_pressure;BME280_temperature;BME280_humidity;BME280_pressure;Samples;Min_cycle;Max_cycle;Signal;HPM_P1;HPM_P2
2022/03/21 00:01:29;;;;;;;1999.90;999.90;;;;;;;4.28;46.72;163538.41;4974923;28;20092;-68
2022/03/21 00:03:56;;;;;;;1999.90;999.90;;;;;;;4.14;48.25;163501.41;4987591;28;20242;-67
2022/03/21 00:06:23;;;;;;;1999.90;999.90;;;;;;;4.26;49.44;163532.94;4977137;28;20140;-67
2022/03/21 00:08:49;;;;;;;1999.90;999.90;;;;;;;4.11;48.66;163493.19;4982078;28;20105;-67
2022/03/21 00:11:16;;;;;;;1999.90;999.90;;;;;;;3.90;48.49;163435.56;4980723;28;20074;-67
2022/03/21 00:13:43;;;;;;;1999.90;999.90;;;;;;;3.99;49.66;163461.66;4979639;28;20078;-67
2022/03/21 00:16:12;;;;;;;1999.90;999.90;;;;;;;4.04;50.05;163474.00;4990248;28;20129;-67
2022/03/21 00:18:39;;;;;;;1999.90;999.90;;;;;;;3.44;49.60;163314.97;4979348;28;20062;-67
2022/03/21 00:21:06;;;;;;;1999.90;999.90;;;;;;;3.61;49.97;163360.19;4988008;28;20401;-67
2022/03/21 00:23:33;;;;;;;1999.90;999.90;;;;;;;3.69;49.98;163380.72;4978851;28;20050;-66
2022/03/21 00:26:00;;;;;;;1999.90;999.90;;;;;;;3.59;50.83;163353.31;4980728;28;20085;-67
2022/03/21 00:28:26;;;;;;;1999.90;999.90;;;;;;;3.73;49.61;163391.72;4988207;28;20077;-67
2022/03/21 00:30:53;;;;;;;1999.90;999.90;;;;;;;3.84;50.03;163421.88;4979272;28;20086;-67
2022/03/21 00:33:20;;;;;;;1999.90;999.90;;;;;;;3.85;51.02;163424.59;4988077;28;20134;-67
2022/03/21 00:35:50;;;;;;;1999.90;999.90;;;;;;;3.88;51.54;163432.88;4980042;28;20503;-67
2022/03/21 00:38:18;;;;;;;1999.90;999.90;;;;;;;3.74;51.69;163394.47;4987382;28;20053;-67
2022/03/21 00:40:46;;;;;;;1999.90;999.90;;;;;;;3.72;52.36;163388.97;4981225;28;20050;-67
2022/03/21 00:43:21;;;;;;;1999.90;999.90;;;;;;;3.52;52.71;163336.88;4976207;28;20980;-67
2022/03/21 00:45:52;;;;;;;1999.90;999.90;;;;;;;3.52;53.14;163336.88;4973777;28;20231;-67
2022/03/21 00:48:23;;;;;;;1999.90;999.90;;;;;;;3.65;52.80;163369.81;4978677;28;20058;-67
2022/03/21 00:50:50;;;;;;;1999.90;999.90;;;;;;;3.61;52.44;163360.19;4988059;28;20530;-67
2022/03/21 00:53:18;;;;;;;1999.90;999.90;;;;;;;3.68;52.64;163378.03;4979305;28;20745;-67
2022/03/21 00:55:46;;;;;;;1999.90;999.90;;;;;;;3.65;53.13;163369.81;4983007;28;20054;-67
2022/03/21 00:58:13;;;;;;;1999.90;999.90;;;;;;;3.51;53.03;163332.75;4987195;28;20452;-67
2022/03/21 01:00:40;;;;;;;1999.90;999.90;;;;;;;3.37;52.78;163295.78;4974588;28;20120;-67
2022/03/21 01:03:07;;;;;;;1999.90;999.90;;;;;;;3.28;52.56;163271.13;4984276;28;20544;-67
2022/03/21 01:05:34;;;;;;;1999.90;999.90;;;;;;;3.27;52.98;163269.72;4969246;28;20050;-67
2022/03/21 01:08:02;;;;;;;1999.90;999.90;;;;;;;2.99;54.19;163194.34;4981142;28;20058;-67
2022/03/21 01:10:30;;;;;;;1999.90;999.90;;;;;;;3.17;54.62;163242.31;4975279;28;20355;-67
2022/03/21 01:12:56;;;;;;;1999.90;999.90;;;;;;;3.26;54.42;163265.59;4986780;28;20105;-67
2022/03/21 01:15:26;;;;;;;1999.90;999.90;;;;;;;3.27;54.11;163269.72;4991374;28;20124;-67
2022/03/21 01:17:53;;;;;;;1999.90;999.90;;;;;;;3.27;54.35;163268.38;4973505;28;20086;-67
2022/03/21 01:20:21;;;;;;;1999.90;999.90;;;;;;;3.21;54.71;163253.28;4987741;28;20581;-67
2022/03/21 01:22:49;;;;;;;1999.90;999.90;;;;;;;3.21;55.14;163253.28;4973175;28;20050;-67
2022/03/21 01:25:16;;;;;;;1999.90;999.90;;;;;;;3.12;53.60;163229.97;4987966;28;20181;-67
2022/03/21 01:27:43;;;;;;;1999.90;999.90;;;;;;;3.13;54.70;163232.72;4972440;28;20053;-67
2022/03/21 01:30:12;;;;;;;1999.90;999.90;;;;;;;3.23;54.60;163257.38;4982587;28;20073;-67
2022/03/21 01:32:42;;;;;;;1999.90;999.90;;;;;;;3.21;54.68;163251.91;4986729;28;20078;-67
2022/03/21 01:35:11;;;;;;;1999.90;999.90;;;;;;;3.15;54.41;163238.19;4979004;28;20231;-67
2022/03/21 01:37:37;;;;;;;1999.90;999.90;;;;;;;3.15;53.14;163238.19;4989739;28;20105;-67
2022/03/21 01:40:05;;;;;;;1999.90;999.90;;;;;;;3.22;52.95;163254.69;4981042;28;20090;-67
2022/03/21 01:42:31;;;;;;;1999.90;999.90;;;;;;;3.31;53.25;163279.34;4972880;28;20055;-67
2022/03/21 01:44:58;;;;;;;1999.90;999.90;;;;;;;3.23;53.96;163258.78;4975791;28;20620;-67
2022/03/21 01:47:24;;;;;;;1999.90;999.90;;;;;;;3.27;54.90;163268.38;4988416;28;20587;-67
2022/03/21 01:49:51;;;;;;;1999.90;999.90;;;;;;;3.20;54.88;163249.16;4980707;28;20054;-67
2022/03/21 01:52:20;;;;;;;1999.90;999.90;;;;;;;2.69;55.37;163114.91;4989097;28;20076;-67
2022/03/21 01:57:50;;;;;;;1999.90;999.90;;;;;;;2.55;56.09;163076.56;4916515;29;20105;-67
2022/03/21 02:00:17;;;;;;;1999.90;999.90;;;;;;;2.73;55.61;163125.88;4970744;28;20078;-67
2022/03/21 02:02:43;;;;;;;1999.90;999.90;;;;;;;2.69;56.30;163113.53;4979838;28;20116;-67
2022/03/21 02:05:10;;;;;;;1999.90;999.90;;;;;;;2.84;55.92;163153.28;4982439;28;20145;-67
2022/03/21 02:07:37;;;;;;;1999.90;999.90;;;;;;;2.78;56.19;163138.19;4983605;28;20181;-67
2022/03/21 02:10:05;;;;;;;1999.90;999.90;;;;;;;2.74;56.16;163128.63;4980901;28;20148;-67
2022/03/21 02:12:33;;;;;;;1999.90;999.90;;;;;;;2.80;54.55;163145.06;4989094;28;20074;-67
2022/03/21 02:15:00;;;;;;;1999.90;999.90;;;;;;;2.88;55.54;163164.25;4983456;28;20462;-67
2022/03/21 02:17:29;;;;;;;1999.90;999.90;;;;;;;2.84;55.92;163154.63;4989874;28;20085;-67
2022/03/21 02:19:57;;;;;;;1999.90;999.90;;;;;;;2.81;56.47;163147.81;4981467;28;20877;-67
2022/03/21 02:22:31;;;;;;;1999.90;999.90;;;;;;;2.82;57.17;163150.50;4989209;28;20589;-67
2022/03/21 02:25:23;;;;;;;1999.90;999.90;;;;;;;2.82;55.76;163150.50;4985748;28;20346;-67
2022/03/21 02:27:51;;;;;;;1999.90;999.90;;;;;;;2.46;55.43;163054.63;4976798;28;20472;-67
2022/03/21 02:30:18;;;;;;;1999.90;999.90;;;;;;;2.42;54.76;163043.66;4987973;28;20078;-67
2022/03/21 02:32:47;;;;;;;1999.90;999.90;;;;;;;2.31;54.88;163012.16;4979177;28;20496;-67
2022/03/21 02:35:16;;;;;;;1999.90;999.90;;;;;;;2.52;55.30;163069.72;4988459;28;20077;-67
2022/03/21 02:37:45;;;;;;;1999.90;999.90;;;;;;;2.67;55.87;163108.09;4980658;28;20419;-67
2022/03/21 02:40:12;;;;;;;1999.90;999.90;;;;;;;2.69;56.58;163113.53;4989382;28;20335;-67
2022/03/21 02:42:39;;;;;;;1999.90;999.90;;;;;;;2.77;56.78;163136.84;4989135;28;20058;-67
2022/03/21 02:45:05;;;;;;;1999.90;999.90;;;;;;;2.81;56.23;163147.81;4979860;28;20472;-67
2022/03/21 02:47:32;;;;;;;1999.90;999.90;;;;;;;2.62;57.08;163097.09;4976628;28;20046;-67
2022/03/21 02:50:00;;;;;;;1999.90;999.90;;;;;;;2.64;57.30;163101.22;4971963;28;20078;-67
2022/03/21 02:52:29;;;;;;;1999.90;999.90;;;;;;;2.66;57.30;163106.69;4989572;28;20050;-67
2022/03/21 02:54:56;;;;;;;1999.90;999.90;;;;;;;2.56;57.66;163079.28;4978542;28;20051;-67
2022/03/21 02:57:23;;;;;;;1999.90;999.90;;;;;;;2.55;57.35;163077.94;4987631;28;20624;-67
2022/03/21 02:59:49;;;;;;;1999.90;999.90;;;;;;;2.54;58.14;163073.81;4988801;28;20054;-67
2022/03/21 03:02:16;;;;;;;1999.90;999.90;;;;;;;2.59;58.38;163087.50;4966953;28;20104;-67
2022/03/21 03:04:43;;;;;;;1999.90;999.90;;;;;;;2.66;57.56;163105.34;4980103;28;20404;-67
2022/03/21 03:07:09;;;;;;;1999.90;999.90;;;;;;;2.60;57.65;163090.25;4987363;28;20307;-67
2022/03/21 03:09:36;;;;;;;1999.90;999.90;;;;;;;2.48;57.83;163058.75;4993836;28;20058;-67
2022/03/21 03:12:02;;;;;;;1999.90;999.90;;;;;;;2.47;58.62;163057.38;4988921;28;20105;-67
2022/03/21 03:14:29;;;;;;;1999.90;999.90;;;;;;;2.44;58.35;163049.19;4984378;28;20112;-67
2022/03/21 03:16:56;;;;;;;1999.90;999.90;;;;;;;2.26;58.51;163001.25;4992664;28;20070;-67
2022/03/21 03:19:22;;;;;;;1999.90;999.90;;;;;;;2.40;58.29;163038.22;4976490;28;20121;-67
2022/03/21 03:21:50;;;;;;;1999.90;999.90;;;;;;;2.39;57.49;163034.09;4983121;28;20390;-67
2022/03/21 03:24:19;;;;;;;1999.90;999.90;;;;;;;2.32;57.04;163016.28;4984720;28;20070;-67
2022/03/21 03:26:46;;;;;;;1999.90;999.90;;;;;;;2.28;57.28;163006.72;4987770;28;20083;-67
2022/03/21 03:29:17;;;;;;;;;;;;;;;2.18;57.74;162977.97;4987190;28;20138;-67
2022/03/21 03:31:44;;;;;;;1999.90;999.90;;;;;;;2.08;58.25;162953.31;4978372;28;20278;-67
2022/03/21 03:34:12;;;;;;;1999.90;999.90;;;;;;;2.02;59.02;162936.84;4987297;28;20057;-67
2022/03/21 03:36:38;;;;;;;1999.90;999.90;;;;;;;2.07;59.16;162949.19;4978747;28;20050;-68
2022/03/21 03:39:05;;;;;;;1999.90;999.90;;;;;;;2.03;59.22;162939.59;4988029;28;20108;-68
2022/03/21 03:41:32;;;;;;;1999.90;999.90;;;;;;;1.97;58.61;162921.84;4972762;28;20050;-67
2022/03/21 03:43:58;;;;;;;1999.90;999.90;;;;;;;2.00;58.67;162931.41;4985910;28;20084;-67
2022/03/21 03:46:25;;;;;;;1999.90;999.90;;;;;;;1.96;59.32;162919.09;4987230;28;20050;-67
2022/03/21 03:48:54;;;;;;;1999.90;999.90;;;;;;;1.93;59.87;162913.56;4978736;28;20145;-69
2022/03/21 03:51:21;;;;;;;1999.90;999.90;;;;;;;2.01;60.05;162932.75;4992505;28;20065;-68
2022/03/21 03:53:47;;;;;;;1999.90;999.90;;;;;;;1.96;60.15;162920.44;4982348;28;20124;-69
2022/03/21 03:56:19;;;;;;;1999.90;999.90;;;;;;;2.05;60.05;162945.06;4987773;28;20152;-69
2022/03/21 03:58:46;;;;;;;1999.90;999.90;;;;;;;2.03;60.49;162938.25;4978395;28;20497;-66
2022/03/21 04:01:12;;;;;;;1999.90;999.90;;;;;;;1.97;59.96;162923.19;4994520;28;20042;-66
2022/03/21 04:03:45;;;;;;;1999.90;999.90;;;;;;;1.96;60.15;162920.44;4991091;28;20124;-68
2022/03/21 04:06:13;;;;;;;1999.90;999.90;;;;;;;1.87;60.07;162895.81;4978407;28;20062;-68
2022/03/21 04:08:40;;;;;;;1999.90;999.90;;;;;;;1.72;61.33;162856.09;4995840;28;20085;-68
2022/03/21 04:11:06;;;;;;;1999.90;999.90;;;;;;;1.87;60.88;162895.81;4970843;28;20509;-68
2022/03/21 04:13:33;;;;;;;1999.90;999.90;;;;;;;1.76;60.84;162868.41;4983225;28;20061;-68
2022/03/21 04:15:59;;;;;;;1999.90;999.90;;;;;;;1.89;60.35;162901.25;5001473;28;20525;-68
2022/03/21 04:18:27;;;;;;;1999.90;999.90;;;;;;;1.84;60.24;162888.94;4979867;28;20510;-68
2022/03/21 04:21:13;;;;;;;1999.90;999.90;;;;;;;1.90;60.32;162905.38;4987005;28;20511;-68
2022/03/21 04:23:40;;;;;;;1999.90;999.90;;;;;;;1.97;60.09;162923.19;4970104;28;20058;-68
2022/03/21 04:26:07;;;;;;;1999.90;999.90;;;;;;;1.88;60.68;162899.91;4980406;28;20654;-68
2022/03/21 04:28:34;;;;;;;1999.90;999.90;;;;;;;1.09;61.59;162687.75;4965442;28;20058;-68
2022/03/21 04:31:00;;;;;;;1999.90;999.90;;;;;;;0.56;63.32;162548.22;4983300;28;20086;-68
2022/03/21 04:33:27;;;;;;;1999.90;999.90;;;;;;;0.80;63.22;162612.50;4973069;28;20055;-68
2022/03/21 04:35:53;;;;;;;1999.90;999.90;;;;;;;1.01;62.37;162668.63;4974155;28;20399;-68
2022/03/21 04:38:20;;;;;;;1999.90;999.90;;;;;;;1.26;62.24;162734.28;4985258;28;20081;-68
2022/03/21 04:40:49;;;;;;;1999.90;999.90;;;;;;;1.32;61.85;162750.69;4968797;28;20062;-68
2022/03/21 04:43:18;;;;;;;1999.90;999.90;;;;;;;1.43;62.08;162778.06;4985499;28;20089;-69
2022/03/21 04:45:46;;;;;;;1999.90;999.90;;;;;;;1.42;61.71;162776.72;4974905;28;20410;-68
2022/03/21 04:48:14;;;;;;;1999.90;999.90;;;;;;;1.49;62.00;162794.50;4982009;28;20503;-68
2022/03/21 04:50:40;;;;;;;1999.90;999.90;;;;;;;1.35;62.37;162757.56;4979527;28;20088;-68
2022/03/21 04:53:08;;;;;;;1999.90;999.90;;;;;;;1.12;62.50;162696.00;4974506;28;20195;-68
2022/03/21 04:55:35;;;;;;;1999.90;999.90;;;;;;;1.20;63.89;162717.88;4984894;28;20240;-69
2022/03/21 04:58:01;;;;;;;1999.90;999.90;;;;;;;1.26;63.82;162734.28;4970587;28;20505;-68
2022/03/21 05:00:28;;;;;;;1999.90;999.90;;;;;;;1.37;63.03;162764.41;4977413;28;20081;-69
2022/03/21 05:02:55;;;;;;;1999.90;999.90;;;;;;;1.51;63.17;162801.34;4976588;28;20104;-69
2022/03/21 05:05:25;;;;;;;1999.90;999.90;;;;;;;1.50;62.21;162797.25;4981247;28;20059;-68
2022/03/21 05:07:54;;;;;;;1999.90;999.90;;;;;;;1.50;61.68;162797.25;4985079;28;20077;-68
2022/03/21 05:10:22;;;;;;;1999.90;999.90;;;;;;;1.50;61.28;162797.25;4976394;28;20105;-69
2022/03/21 05:12:50;;;;;;;1999.90;999.90;;;;;;;1.42;62.05;162775.38;4988953;28;20050;-69
2022/03/21 05:15:18;;;;;;;1999.90;999.90;;;;;;;1.46;61.09;162787.69;4983086;28;20078;-69
2022/03/21 05:17:45;;;;;;;1999.90;999.90;;;;;;;1.21;61.37;162720.63;4987305;28;20050;-69
2022/03/21 05:20:16;;;;;;;1999.90;999.90;;;;;;;1.23;61.07;162727.44;4980012;28;20270;-68
2022/03/21 05:31:09;;;;;;;1999.90;999.90;;;;;;;1.57;60.91;162816.41;4963313;28;20146;-68
2022/03/21 05:36:26;;;;;;;1999.90;999.90;;;;;;;1.96;60.80;162919.09;4986669;28;20051;-69
2022/03/21 05:38:53;;;;;;;1999.90;999.90;;;;;;;2.12;59.49;162962.91;4977880;28;20046;-69
2022/03/21 05:41:20;;;;;;;1999.90;999.90;;;;;;;2.22;59.50;162988.88;4987182;28;20050;-69
2022/03/21 05:43:46;;;;;;;1999.90;999.90;;;;;;;2.15;59.43;162971.09;4973702;28;20499;-69
2022/03/21 05:46:14;;;;;;;1999.90;999.90;;;;;;;1.91;59.91;162908.13;4987506;28;20082;-69
2022/03/21 05:49:00;;;;;;;1999.90;999.90;;;;;;;1.91;59.69;162906.78;4979850;28;20082;-68
2022/03/21 05:51:32;;;;;;;1999.90;999.90;;;;;;;1.78;60.12;162871.19;4979026;28;20078;-69
2022/03/21 05:54:01;;;;;;;1999.90;999.90;;;;;;;1.85;59.28;162890.34;4985413;28;20363;-69
2022/03/21 05:56:28;;;;;;;1999.90;999.90;;;;;;;1.94;58.58;162914.97;4978254;28;20550;-68
2022/03/21 05:58:56;;;;;;;1999.90;999.90;;;;;;;2.17;58.29;162976.56;4983046;28;20103;-68
2022/03/21 06:01:23;;;;;;;1999.90;999.90;;;;;;;2.19;58.34;162980.66;4976611;28;20105;-68
2022/03/21 06:03:52;;;;;;;1999.90;999.90;;;;;;;2.33;58.86;163019.03;4987646;28;20054;-68
2022/03/21 06:06:20;;;;;;;1999.90;999.90;;;;;;;2.75;57.04;163131.31;4990308;28;20050;-69
2022/03/21 06:08:48;;;;;;;1999.90;999.90;;;;;;;3.09;57.04;163221.75;4986388;28;20172;-69
2022/03/21 06:11:15;;;;;;;1999.90;999.90;;;;;;;3.25;57.04;163264.25;4990598;28;20054;-69
2022/03/21 06:13:44;;;;;;;1999.90;999.90;;;;;;;3.29;56.12;163273.81;4972375;28;20054;-69
2022/03/21 06:16:11;;;;;;;1999.90;999.90;;;;;;;3.04;56.89;163206.69;4994823;28;20105;-69
2022/03/21 06:18:39;;;;;;;1999.90;999.90;;;;;;;3.34;56.40;163287.56;4971220;28;20145;-69
2022/03/21 06:21:08;;;;;;;1999.90;999.90;;;;;;;3.47;55.33;163321.84;4989837;28;20109;-69
2022/03/21 06:23:35;;;;;;;1999.90;999.90;;;;;;;3.44;55.05;163314.97;4989049;28;20108;-69
2022/03/21 06:26:03;;;;;;;1999.90;999.90;;;;;;;3.73;54.62;163391.72;4980026;28;20054;-69
2022/03/21 06:28:31;;;;;;;1999.90;999.90;;;;;;;3.46;55.09;163320.44;4978029;28;20401;-69
2022/03/21 06:30:58;;;;;;;1999.90;999.90;;;;;;;3.38;55.36;163298.53;4977197;28;20117;-68
2022/03/21 06:33:27;;;;;;;1999.90;999.90;;;;;;;3.30;55.88;163276.56;4984691;28;20079;-68
2022/03/21 06:35:55;;;;;;;1999.90;999.90;;;;;;;3.29;56.19;163273.81;4971535;28;20552;-68
2022/03/21 06:38:23;;;;;;;1999.90;999.90;;;;;;;3.84;54.43;163421.88;4969151;28;20082;-68
2022/03/21 06:40:50;;;;;;;1999.90;999.90;;;;;;;3.96;54.62;163453.44;4986599;28;20058;-68
2022/03/21 06:43:20;;;;;;;1999.90;999.90;;;;;;;3.80;54.84;163410.91;4977957;28;20061;-68
2022/03/21 06:45:54;;;;;;;1999.90;999.90;;;;;;;3.65;55.11;163369.81;4986681;28;20057;-68
2022/03/21 06:48:23;;;;;;;1999.90;999.90;;;;;;;3.92;54.75;163442.44;4970704;28;20058;-68
2022/03/21 06:50:51;;;;;;;1999.90;999.90;;;;;;;3.65;54.44;163369.81;4989619;28;20429;-68
2022/03/21 06:53:18;;;;;;;1999.90;999.90;;;;;;;3.92;54.64;163441.09;4971587;28;20047;-68
2022/03/21 06:55:45;;;;;;;1999.90;999.90;;;;;;;3.91;54.34;163438.34;4988096;28;20046;-68
2022/03/21 06:58:13;;;;;;;1999.90;999.90;;;;;;;4.09;53.52;163487.66;4988476;28;20510;-68
2022/03/21 07:00:45;;;;;;;1999.90;999.90;;;;;;;4.96;51.21;163719.50;4968226;28;20054;-68
2022/03/21 07:03:15;;;;;;;1999.90;999.90;;;;;;;5.41;50.34;163838.88;4990305;28;20078;-68
2022/03/21 07:05:44;;;;;;;1999.90;999.90;;;;;;;5.05;50.92;163744.19;4980201;28;20054;-68
2022/03/21 07:08:10;;;;;;;1999.90;999.90;;;;;;;5.15;50.74;163768.88;4988946;28;20062;-68
2022/03/21 07:10:40;;;;;;;1999.90;999.90;;;;;;;4.74;50.81;163661.84;4981530;28;20105;-68
2022/03/21 07:13:07;;;;;;;1999.90;999.90;;;;;;;4.40;51.73;163569.97;4975592;28;20446;-67
2022/03/21 07:15:34;;;;;;;1999.90;999.90;;;;;;;3.88;51.02;163432.88;4995342;28;20054;-67
2022/03/21 07:18:00;;;;;;;1999.90;999.90;;;;;;;5.13;49.18;163763.41;4979006;28;20050;-67
2022/03/21 07:20:27;;;;;;;1999.90;999.90;;;;;;;5.04;48.56;163740.06;4985806;28;20332;-68
2022/03/21 07:22:57;;;;;;;1999.90;999.90;;;;;;;4.32;50.49;163549.41;4975778;28;20100;-67
2022/03/21 07:25:24;;;;;;;1999.90;999.90;;;;;;;4.25;50.49;163530.19;4986988;28;20431;-67
2022/03/21 07:27:52;;;;;;;1999.90;999.90;;;;;;;4.35;49.94;163557.63;4971124;28;20050;-67
2022/03/21 07:30:19;;;;;;;1999.90;999.90;;;;;;;4.59;48.40;163622.06;4981164;28;20082;-67
2022/03/21 07:32:45;;;;;;;1999.90;999.90;;;;;;;5.40;46.80;163836.13;4979649;28;20190;-68
2022/03/21 07:35:15;;;;;;;1999.90;999.90;;;;;;;5.58;47.45;163884.16;4985593;28;20102;-67
2022/03/21 07:37:52;;;;;;;1999.90;999.90;;;;;;;5.95;43.96;163984.34;4989622;28;20367;-67
2022/03/21 07:40:19;;;;;;;1999.90;999.90;;;;;;;6.42;43.10;164109.41;4980054;28;20042;-68
2022/03/21 07:42:48;;;;;;;1999.90;999.90;;;;;;;7.25;41.89;164330.59;4989606;28;20408;-68
2022/03/21 07:48:00;;;;;;;1999.90;999.90;;;;;;;6.63;42.44;164165.72;4988892;28;20105;-68
2022/03/21 07:50:28;;;;;;;1999.90;999.90;;;;;;;7.08;41.60;164283.88;4976470;28;20244;-67
2022/03/21 07:52:56;;;;;;;1999.90;999.90;;;;;;;7.23;41.37;164325.06;4986085;28;20086;-66
2022/03/21 07:55:24;;;;;;;1999.90;999.90;;;;;;;7.70;39.56;164450.16;4987561;28;20051;-67
2022/03/21 07:57:51;;;;;;;1999.90;999.90;;;;;;;6.57;41.60;164147.88;4976971;28;20050;-66
2022/03/21 08:00:17;;;;;;;1999.90;999.90;;;;;;;8.00;39.29;164531.25;4988380;28;20054;-67
2022/03/21 08:02:45;;;;;;;1999.90;999.90;;;;;;;8.58;38.30;164686.69;4979600;28;20407;-67
2022/03/21 08:05:13;;;;;;;1999.90;999.90;;;;;;;8.74;37.42;164729.34;4989205;28;20129;-66
2022/03/21 08:07:41;;;;;;;1999.90;999.90;;;;;;;8.62;37.41;164697.72;4984024;28;20074;-66
2022/03/21 08:10:08;;;;;;;1999.90;999.90;;;;;;;7.54;38.13;164408.91;4986537;28;20042;-66
2022/03/21 08:12:37;;;;;;;1999.90;999.90;;;;;;;8.53;38.50;164671.56;4979785;28;20117;-66
2022/03/21 08:15:04;;;;;;;1999.90;999.90;;;;;;;8.94;36.51;164782.97;4984089;28;20149;-66
2022/03/21 08:17:30;;;;;;;1999.90;999.90;;;;;;;9.97;34.92;165056.84;4992230;28;20054;-66
2022/03/21 08:19:57;;;;;;;1999.90;999.90;;;;;;;9.18;35.77;164846.28;4978835;28;20120;-67
2022/03/21 08:22:24;;;;;;;1999.90;999.90;;;;;;;9.44;36.31;164915.09;4985231;28;20082;-66
2022/03/21 08:24:52;;;;;;;1999.90;999.90;;;;;;;9.77;33.90;165004.53;4968223;28;20092;-66
2022/03/21 08:27:19;;;;;;;1999.90;999.90;;;;;;;9.64;34.51;164970.13;4989022;28;20058;-66
2022/03/21 08:29:45;;;;;;;1999.90;999.90;;;;;;;10.87;33.21;165299.28;4987042;28;20082;-66
2022/03/21 08:32:12;;;;;;;1999.90;999.90;;;;;;;11.09;31.66;165358.50;4973323;28;20629;-66
2022/03/21 08:34:38;;;;;;;1999.90;999.90;;;;;;;11.27;31.21;165406.72;4988738;28;20419;-66
2022/03/21 08:37:04;;;;;;;1999.90;999.90;;;;;;;11.76;30.98;165536.22;4973917;28;20385;-66
2022/03/21 08:39:31;;;;;;;1999.90;999.90;;;;;;;12.29;31.04;165679.66;4987837;28;20058;-66
2022/03/21 08:41:57;;;;;;;1999.90;999.90;;;;;;;12.53;29.30;165743.06;4976374;28;20050;-66
2022/03/21 08:44:24;;;;;;;1999.90;999.90;;;;;;;11.32;29.92;165419.13;4989110;28;20081;-66
2022/03/21 08:46:51;;;;;;;1999.90;999.90;;;;;;;11.88;28.98;165569.34;4992826;28;20089;-66
2022/03/21 08:49:23;;;;;;;1999.90;999.90;;;;;;;10.95;30.16;165319.91;4979582;28;20058;-67
2022/03/21 08:51:59;;;;;;;1999.90;999.90;;;;;;;11.38;30.50;165434.28;4987566;28;20142;-66
2022/03/21 08:54:26;;;;;;;1999.90;999.90;;;;;;;11.22;30.00;165392.91;4977669;28;20058;-67
2022/03/21 08:56:52;;;;;;;1999.90;999.90;;;;;;;12.17;29.32;165645.22;4986329;28;20338;-67
2022/03/21 08:59:19;;;;;;;1999.90;999.90;;;;;;;12.76;28.67;165803.72;4983793;28;20116;-67
2022/03/21 09:01:45;;;;;;;1999.90;999.90;;;;;;;13.19;27.29;165919.66;4991709;28;20112;-67
2022/03/21 09:04:12;;;;;;;1999.90;999.90;;;;;;;12.02;28.46;165605.25;4992275;28;20125;-66
2022/03/21 09:06:40;;;;;;;1999.90;999.90;;;;;;;12.15;28.28;165642.44;4978194;28;20057;-66
2022/03/21 09:09:07;;;;;;;1999.90;999.90;;;;;;;12.68;27.95;165784.47;4999989;28;20050;-66
2022/03/21 09:11:33;;;;;;;1999.90;999.90;;;;;;;13.13;27.72;165904.47;4959529;28;20047;-66
2022/03/21 09:14:00;;;;;;;1999.90;999.90;;;;;;;13.00;26.34;165869.97;4992609;28;20079;-66
2022/03/21 09:16:27;;;;;;;1999.90;999.90;;;;;;;13.27;27.00;165940.31;5002916;28;20456;-67
2022/03/21 09:18:53;;;;;;;1999.90;999.90;;;;;;;13.11;26.83;165897.53;4978820;28;20058;-67
2022/03/21 09:21:20;;;;;;;1999.90;999.90;;;;;;;13.17;27.17;165914.09;4989060;28;20392;-67
2022/03/21 09:23:47;;;;;;;1999.90;999.90;;;;;;;12.86;27.39;165831.31;4983751;28;20058;-67
2022/03/21 09:26:13;;;;;;;1999.90;999.90;;;;;;;13.18;28.31;165916.88;4990917;28;20050;-67
2022/03/21 09:28:41;;;;;;;1999.90;999.90;;;;;;;13.85;27.34;166096.28;4981032;28;20062;-67
2022/03/21 09:31:07;;;;;;;1999.90;999.90;;;;;;;13.23;26.61;165930.63;4992501;28;20108;-67
2022/03/21 09:33:55;;;;;;;1999.90;999.90;;;;;;;13.72;26.43;166063.13;4989702;28;20427;-67
2022/03/21 09:36:21;;;;;;;1999.90;999.90;;;;;;;14.41;25.75;166248.09;4985002;28;20444;-67
2022/03/21 09:38:49;;;;;;;1999.90;999.90;;;;;;;13.07;26.72;165886.50;4991765;28;20219;-67
2022/03/21 09:41:22;;;;;;;1999.90;999.90;;;;;;;14.34;25.80;166227.41;4982706;28;20117;-68
2022/03/21 09:43:54;;;;;;;1999.90;999.90;;;;;;;15.03;25.75;166413.81;4990475;28;20203;-68
2022/03/21 09:46:21;;;;;;;1999.90;999.90;;;;;;;13.51;26.03;166005.22;4981047;28;20089;-67
2022/03/21 09:48:50;;;;;;;1999.90;999.90;;;;;;;12.73;25.89;165795.47;4990618;28;20104;-67
2022/03/21 09:51:21;;;;;;;1999.90;999.90;;;;;;;13.36;24.75;165966.56;4991455;28;20058;-67
2022/03/21 09:53:53;;;;;;;1999.90;999.90;;;;;;;14.30;24.40;166217.72;4986637;28;20050;-68
2022/03/21 09:56:20;;;;;;;1999.90;999.90;;;;;;;14.19;24.25;166187.38;4990925;28;20058;-67
2022/03/21 09:58:47;;;;;;;1999.90;999.90;;;;;;;14.65;22.88;166310.25;4981909;28;20109;-67
2022/03/21 10:01:16;;;;;;;1999.90;999.90;;;;;;;13.47;25.17;165994.16;4989827;28;20156;-67
2022/03/21 10:03:43;;;;;;;1999.90;999.90;;;;;;;14.84;24.91;166361.34;4976544;28;20438;-68
2022/03/21 10:06:28;;;;;;;1999.90;999.90;;;;;;;15.93;21.99;166655.63;4991345;28;20054;-68
2022/03/21 10:09:10;;;;;;;1999.90;999.90;;;;;;;15.89;23.08;166643.22;4980603;28;20038;-68
2022/03/21 10:11:51;;;;;;;1999.90;999.90;;;;;;;15.71;23.09;166596.16;4973555;28;20458;-68
2022/03/21 10:14:36;;;;;;;1999.90;999.90;;;;;;;15.96;23.03;166662.56;4992494;28;20097;-68
2022/03/21 10:17:05;;;;;;;1999.90;999.90;;;;;;;14.49;24.88;166267.44;4981325;28;20050;-68
2022/03/21 10:19:45;;;;;;;1999.90;999.90;;;;;;;13.66;26.32;166045.22;4980843;28;20131;-68
2022/03/21 10:22:15;;;;;;;1999.90;999.90;;;;;;;12.80;26.31;165816.19;4976748;28;20061;-68
2022/03/21 10:24:44;;;;;;;1999.90;999.90;;;;;;;13.54;25.43;166014.84;4979370;28;20062;-68
2022/03/21 10:27:32;;;;;;;1999.90;999.90;;;;;;;14.62;25.09;166303.38;4968372;28;20054;-69
2022/03/21 10:30:08;;;;;;;1999.90;999.90;;;;;;;13.82;25.37;166088.00;4990063;28;20084;-68
2022/03/21 10:32:39;;;;;;;1999.90;999.90;;;;;;;12.75;25.26;165801.00;4981309;28;20406;-68
2022/03/21 10:35:18;;;;;;;1999.90;999.90;;;;;;;11.83;25.40;165555.53;4985765;28;20077;-67
2022/03/21 10:38:01;;;;;;;1999.90;999.90;;;;;;;12.06;24.89;165616.22;4991107;28;20054;-68
2022/03/21 10:40:54;;;;;;;1999.90;999.90;;;;;;;11.75;24.74;165533.50;4978800;28;20175;-66
2022/03/21 10:43:21;;;;;;;1999.90;999.90;;;;;;;13.31;23.63;165952.75;4985783;28;20046;-66
2022/03/21 10:45:51;;;;;;;1999.90;999.90;;;;;;;14.44;22.94;166255.03;4981379;28;20054;-67
2022/03/21 10:48:24;;;;;;;1999.90;999.90;;;;;;;13.35;23.63;165963.84;4984595;28;20065;-67
2022/03/21 10:50:56;;;;;;;1999.90;999.90;;;;;;;13.29;24.98;165947.19;4969082;28;20054;-67
2022/03/21 10:53:33;;;;;;;1999.90;999.90;;;;;;;14.48;23.73;166266.03;4978988;28;20463;-68
2022/03/21 10:56:07;;;;;;;1999.90;999.90;;;;;;;15.24;22.50;166470.44;4979853;28;20355;-68
2022/03/21 10:58:38;;;;;;;1999.90;999.90;;;;;;;16.59;22.70;166831.16;4984257;28;20054;-68
2022/03/21 11:01:25;;;;;;;1999.90;999.90;;;;;;;12.82;23.59;165821.69;4985448;28;20132;-67
2022/03/21 11:03:56;;;;;;;1999.90;999.90;;;;;;;13.36;24.95;165966.56;4988480;28;20165;-68
2022/03/21 11:06:24;;;;;;;1999.90;999.90;;;;;;;14.38;25.27;166239.81;5004621;28;20058;-68
2022/03/21 11:08:52;;;;;;;1999.90;999.90;;;;;;;14.02;23.29;166143.22;4978528;28;20058;-68
2022/03/21 11:11:19;;;;;;;1999.90;999.90;;;;;;;13.35;22.72;165963.84;4988874;28;20046;-68
2022/03/21 11:13:48;;;;;;;1999.90;999.90;;;;;;;12.95;23.88;165856.19;4981106;28;20109;-67
2022/03/21 11:16:16;;;;;;;1999.90;999.90;;;;;;;13.74;23.49;166067.31;4999546;28;20050;-67